Time;durP1;ratioP1;P1;durP2;ratioP2;P2;SDS_P1;SDS_P2;PMS_P1;PMS_P2;Temp;Humidity;BMP_temperature;BMP_pressure;BME280_temperature;BME280_humidity;BME280_pressure;Samples;Min_cycle;Max_cycle;Signal;HPM_P1;HPM_P2
2022/03/22 00:00:49;;;;;;;;;8.25;8.00;;;;;20.11;33.98;102258.25;5077613;27;45312;-49
2022/03/22 00:03:14;;;;;;;;;9.00;8.00;;;;;20.10;34.09;102259.16;5077748;27;45402;-50
2022/03/22 00:05:42;;;;;;;;;12.50;10.25;;;;;20.08;33.75;102257.41;5077723;27;45608;-47
2022/03/22 00:08:09;;;;;;;;;9.25;9.25;;;;;20.08;34.33;102260.03;5077420;27;45617;-49
2022/03/22 00:10:36;;;;;;;;;8.00;7.75;;;;;20.07;33.98;102260.94;5077326;27;45336;-44
2022/03/22 00:13:03;;;;;;;;;7.25;7.25;;;;;20.07;33.89;102260.94;5077532;27;45269;-49
2022/03/22 00:15:29;;;;;;;;;7.25;7.25;;;;;20.06;33.84;102263.66;5077644;27;45490;-47
2022/03/22 00:17:54;;;;;;;;;9.75;8.75;;;;;20.06;33.91;102269.75;5077576;27;46250;-46
2022/03/22 00:20:20;;;;;;;;;9.25;8.00;;;;;20.05;33.92;102269.81;5077266;27;45290;-48
2022/03/22 00:22:45;;;;;;;;;11.25;10.00;;;;;20.04;34.28;102270.72;5077322;27;45369;-47
2022/03/22 00:25:12;;;;;;;;;11.75;10.00;;;;;20.04;34.38;102270.72;5076681;27;45420;-47
2022/03/22 00:27:57;;;;;;;;;9.00;9.00;;;;;20.03;33.98;102272.47;5077014;27;46186;-53
2022/03/22 00:30:29;;;;;;;;;9.00;8.25;;;;;20.03;34.09;102274.25;5076939;27;45706;-47
2022/03/22 00:33:00;;;;;;;;;8.25;8.00;;;;;20.02;34.04;102273.38;5077300;27;45319;-50
2022/03/22 00:35:28;;;;;;;;;8.00;8.00;;;;;20.02;33.93;102277.78;5077693;27;45336;-50
2022/03/22 00:37:56;;;;;;;;;7.75;7.75;;;;;20.01;33.76;102276.91;5076850;27;45428;-49
2022/03/22 00:40:24;;;;;;;;;9.75;9.00;;;;;20.00;33.92;102283.13;5076940;27;45265;-48
2022/03/22 00:42:53;;;;;;;;;8.00;8.00;;;;;19.99;33.94;102278.75;5077042;27;45437;-50
2022/03/22 00:45:21;;;;;;;;;8.50;8.00;;;;;19.99;34.30;102277.88;5077119;27;45508;-51
2022/03/22 00:47:49;;;;;;;;;13.25;10.00;;;;;20.00;34.15;102279.59;5076792;27;45969;-49
2022/03/22 00:50:16;;;;;;;;;11.00;11.00;;;;;19.98;34.44;102277.03;5076843;28;45364;-50
2022/03/22 00:52:42;;;;;;;;;9.00;6.50;;;;;19.97;33.91;102280.56;5076889;28;45404;-48
2022/03/22 00:55:09;;;;;;;;;9.00;7.00;;;;;19.98;34.00;102279.66;5077090;28;45396;-47
2022/03/22 00:57:35;;;;;;;;;11.00;10.00;;;;;19.98;34.08;102279.66;5076588;27;46348;-48
2022/03/22 01:00:01;;;;;;;;;9.00;9.00;;;;;19.97;34.25;102277.94;5077064;27;45189;-52
2022/03/22 01:02:27;;;;;;;;;7.25;7.25;;;;;19.94;33.72;102267.50;5077095;27;45354;-49
2022/03/22 01:04:52;;;;;;;;;8.50;8.50;;;;;19.97;34.03;102279.69;5076747;27;45477;-51
2022/03/22 01:07:17;;;;;;;;;11.75;10.50;;;;;19.96;34.27;102278.84;5076509;27;46103;-53
2022/03/22 01:09:43;;;;;;;;;13.00;9.33;;;;;19.95;33.95;102278.91;5076406;28;48722;-52
2022/03/22 01:12:08;;;;;;;;;13.50;9.00;;;;;19.94;34.19;102275.38;5076741;27;45372;-52
2022/03/22 01:14:33;;;;;;;;;7.50;7.00;;;;;19.94;33.92;102275.38;5076647;27;45264;-50
2022/03/22 01:16:59;;;;;;;;;9.25;9.25;;;;;19.94;33.95;102280.66;5076732;27;46038;-49
2022/03/22 01:19:24;;;;;;;;;9.50;8.25;;;;;19.94;34.33;102275.38;5076415;27;45408;-54
2022/03/22 01:21:51;;;;;;;;;8.75;8.00;;;;;19.93;34.05;102273.66;5076517;27;46157;-52
2022/03/22 01:24:17;;;;;;;;;11.50;10.00;;;;;19.94;34.12;102270.13;5076605;27;45489;-45
2022/03/22 01:26:42;;;;;;;;;8.75;6.00;;;;;19.92;34.42;102271.94;5076455;27;46023;-50
2022/03/22 01:29:07;;;;;;;;;11.00;8.75;;;;;19.92;33.86;102271.94;5074905;28;45379;-51
2022/03/22 01:31:34;;;;;;;;;10.50;10.50;;;;;19.91;33.86;102267.56;5075174;28;45382;-49
2022/03/22 01:34:00;;;;;;;;;5.75;5.00;;;;;19.91;34.33;102268.44;5076793;27;45186;-47
2022/03/22 01:36:25;;;;;;;;;9.00;9.00;;;;;19.91;33.92;102268.44;5076177;28;45281;-54
2022/03/22 01:38:52;;;;;;;;;9.75;9.00;;;;;19.91;34.06;102268.44;5078997;27;45205;-55
2022/03/22 01:41:18;;;;;;;;;10.75;9.00;;;;;19.91;34.10;102271.09;5079911;27;45424;-52
2022/03/22 01:43:43;;;;;;;;;12.25;10.50;;;;;19.90;33.91;102268.47;5080024;27;45745;-51
2022/03/22 01:46:09;;;;;;;;;9.50;9.00;;;;;19.88;34.32;102260.66;5079485;27;48184;-53
2022/03/22 01:48:35;;;;;;;;;9.75;9.75;;;;;19.89;34.52;102264.16;5079489;27;45420;-52
2022/03/22 01:51:00;;;;;;;;;10.00;8.00;;;;;19.88;33.82;102263.28;5080029;28;45455;-45
2022/03/22 01:53:27;;;;;;;;;9.25;9.00;;;;;19.89;34.41;102266.78;5079866;27;45494;-52
2022/03/22 01:55:52;;;;;;;;;7.50;7.50;;;;;19.88;34.25;102257.16;5079429;27;46160;-47
2022/03/22 01:58:17;;;;;;;;;10.00;10.00;;;;;19.87;33.88;102264.19;5079510;27;45497;-48
2022/03/22 02:00:43;;;;;;;;;12.00;9.25;;;;;19.88;34.28;102254.53;5079537;27;45357;-53
2022/03/22 02:05:57;;;;;;;;;14.50;8.50;;;;;19.86;34.15;102259.81;5079038;28;45488;-48
2022/03/22 02:08:28;;;;;;;;;11.00;8.50;;;;;19.87;34.28;102258.06;5079463;27;45809;-51
2022/03/22 02:10:55;;;;;;;;;7.50;7.50;;;;;19.86;33.92;102256.34;5079450;27;45354;-53
2022/03/22 02:13:21;;;;;;;;;10.00;8.25;;;;;19.85;33.83;102257.22;5079671;28;45576;-52
2022/03/22 02:15:50;;;;;;;;;11.25;8.75;;;;;19.85;33.86;102255.44;5078916;27;45881;-54
2022/03/22 02:18:17;;;;;;;;;9.00;7.00;;;;;19.85;33.89;102265.09;5077946;28;46067;-54
2022/03/22 02:20:42;;;;;;;;;13.50;9.75;;;;;19.84;33.79;102258.13;5079259;27;45456;-55
2022/03/22 02:24:00;;;;;;;;;8.00;8.00;;;;;19.85;34.06;102259.84;5079477;27;45359;-51
2022/03/22 02:26:27;;;;;;;;;9.00;9.00;;;;;19.83;34.25;102256.41;5044582;27;46630;-51
2022/03/22 02:28:53;;;;;;;;;10.00;9.00;;;;;19.84;34.17;102268.66;5077788;27;45280;-46
2022/03/22 02:31:23;;;;;;;;;10.00;10.00;;;;;19.82;34.00;102259.94;5079081;27;45287;-46
2022/03/22 02:33:50;;;;;;;;;9.25;8.50;;;;;19.83;34.14;102261.66;5079335;28;45401;-44
2022/03/22 02:36:15;;;;;;;;;12.25;10.50;;;;;19.83;34.41;102266.91;5078933;27;46284;-43
2022/03/22 02:38:41;;;;;;;;;14.25;10.75;;;;;19.82;34.09;102259.94;5078752;27;45331;-44
2022/03/22 02:41:06;;;;;;;;;9.50;9.50;;;;;19.82;34.17;102258.19;5079004;27;45246;-45
2022/03/22 02:43:32;;;;;;;;;12.25;9.25;;;;;19.82;34.07;102271.34;5079611;28;45243;-50
2022/03/22 02:45:58;;;;;;;;;10.00;10.00;;;;;19.83;33.90;102266.91;5078524;27;46300;-51
2022/03/22 02:48:24;;;;;;;;;13.25;9.75;;;;;19.81;34.29;102266.09;5078310;27;45333;-51
2022/03/22 02:50:50;;;;;;;;;11.75;9.50;;;;;19.81;33.84;102261.72;5078915;27;45356;-46
2022/03/22 02:53:15;;;;;;;;;10.75;9.50;;;;;19.81;34.37;102260.84;5078876;27;45296;-48
2022/03/22 02:55:41;;;;;;;;;8.25;8.25;;;;;19.81;34.11;102263.47;5060287;28;48101;-47
2022/03/22 02:58:06;;;;;;;;;10.00;10.00;;;;;19.78;33.85;102254.78;5077551;28;45841;-51
2022/03/22 03:00:31;;;;;;;;;12.00;10.00;;;;;19.78;34.42;102262.66;5078770;27;45427;-48
2022/03/22 03:02:57;;;;;;;;;13.00;10.25;;;;;19.78;34.04;102257.41;5078733;27;45922;-52
2022/03/22 03:05:23;;;;;;;;;11.50;10.25;;;;;19.79;34.21;102260.88;5076999;28;48746;-51
2022/03/22 03:07:52;;;;;;;;;11.50;10.00;;;;;19.79;33.76;102271.41;5078306;27;45822;-51
2022/03/22 03:10:17;;;;;;;;;12.50;10.75;;;;;19.77;34.05;102268.84;5078586;27;45287;-52
2022/03/22 03:12:42;;;;;;;;;8.50;8.50;;;;;19.78;34.11;102278.47;5078645;27;45612;-42
2022/03/22 03:15:10;;;;;;;;;14.00;11.00;;;;;19.76;34.32;102269.75;5078091;27;45499;-42
2022/03/22 03:17:36;;;;;;;;;10.25;10.25;;;;;19.77;34.32;102278.47;5078539;27;45393;-48
2022/03/22 03:20:03;;;;;;;;;11.25;10.50;;;;;19.76;33.83;102277.63;5078432;27;45398;-43
2022/03/22 03:22:28;;;;;;;;;9.50;9.50;;;;;19.76;34.06;102276.75;5078396;27;45409;-42
2022/03/22 03:24:53;;;;;;;;;8.25;8.00;;;;;19.75;33.80;102269.78;5077995;27;45432;-48
2022/03/22 03:27:19;;;;;;;;;12.00;9.75;;;;;19.75;34.27;102281.16;5078137;27;45359;-46
2022/03/22 03:29:44;;;;;;;;;11.50;11.50;;;;;19.75;34.08;102278.53;5078115;27;45349;-49
2022/03/22 03:32:09;;;;;;;;;10.75;10.00;;;;;19.74;33.92;102282.06;5078208;27;45268;-41
2022/03/22 03:34:35;;;;;;;;;10.75;10.75;;;;;19.75;33.88;102280.28;5078252;27;45682;-45
2022/03/22 03:37:01;;;;;;;;;12.00;10.75;;;;;19.72;34.09;102273.34;5077807;27;45345;-44
2022/03/22 03:39:26;;;;;;;;;12.25;10.00;;;;;19.72;34.25;102276.00;5077991;27;45243;-43
2022/03/22 03:41:56;;;;;;;;;12.25;9.50;;;;;19.73;34.39;102277.72;5078142;27;45262;-46
2022/03/22 03:47:11;;;;;;;;;13.00;11.00;;;;;19.72;33.85;102286.50;5078023;28;45953;-46
2022/03/22 03:49:41;;;;;;;;;12.25;11.25;;;;;19.72;33.88;102276.00;5078145;28;45361;-46
2022/03/22 03:52:09;;;;;;;;;7.50;7.25;;;;;19.72;33.67;102283.88;5078158;27;45453;-47
2022/03/22 03:54:35;;;;;;;;;12.00;9.50;;;;;19.72;34.25;102280.41;5077454;27;45231;-48
2022/03/22 03:57:01;;;;;;;;;10.50;9.50;;;;;19.71;33.89;102279.53;5077537;27;45370;-49
2022/03/22 03:59:26;;;;;;;;;13.50;11.75;;;;;19.70;33.94;102285.69;5077388;28;45310;-43
2022/03/22 04:01:52;;;;;;;;;11.25;11.25;;;;;19.71;33.68;102290.03;5076964;27;45330;-44
2022/03/22 04:04:17;;;;;;;;;10.00;10.00;;;;;19.70;33.94;102290.94;5077240;27;47009;-48
2022/03/22 04:06:43;;;;;;;;;10.33;8.67;;;;;19.70;33.78;102293.56;5077491;27;46437;-48
2022/03/22 04:09:08;;;;;;;;;13.00;11.75;;;;;19.70;33.69;102296.22;5077858;27;45406;-46
2022/03/22 04:11:34;;;;;;;;;8.50;8.00;;;;;19.70;33.67;102295.34;5077705;27;45223;-44
2022/03/22 04:13:59;;;;;;;;;10.67;10.67;;;;;19.68;33.60;102292.75;5077318;27;45461;-45
2022/03/22 04:16:24;;;;;;;;;9.00;9.00;;;;;19.69;34.15;102291.00;5075713;28;46296;-44
2022/03/22 04:18:50;;;;;;;;;13.00;11.50;;;;;19.69;34.12;102306.78;5077343;27;45303;-50
2022/03/22 04:21:16;;;;;;;;;14.50;11.25;;;;;19.68;33.69;102305.06;5077555;27;45518;-45
2022/03/22 04:23:41;;;;;;;;;11.00;11.00;;;;;19.68;33.94;102302.44;5077137;27;45477;-46
2022/03/22 04:26:06;;;;;;;;;9.75;9.75;;;;;19.67;33.88;102306.84;5077373;27;45448;-45
2022/03/22 04:34:01;;;;;;;;;10.75;9.25;;;;;19.66;33.63;102304.22;5076847;28;45363;-53
2022/03/22 04:36:28;;;;;;;;;12.25;10.25;;;;;19.65;33.79;102300.75;5077104;27;46026;-53
2022/03/22 04:38:54;;;;;;;;;10.50;8.75;;;;;19.66;33.53;102312.13;5077228;27;45514;-48
2022/03/22 04:41:20;;;;;;;;;10.25;10.25;;;;;19.65;33.62;102305.13;5077353;28;45428;-52
2022/03/22 04:43:46;;;;;;;;;10.50;10.50;;;;;19.65;33.94;102313.91;5076770;27;46471;-50
2022/03/22 04:46:11;;;;;;;;;17.00;14.25;;;;;19.64;33.52;102309.56;5077031;27;45283;-54
2022/03/22 04:48:36;;;;;;;;;17.25;16.00;;;;;19.65;34.03;102310.41;5077066;27;45300;-51
2022/03/22 04:56:48;;;;;;;;;22.75;22.00;;;;;19.63;34.01;102319.19;5076810;28;45248;-48
2022/03/22 04:59:15;;;;;;;;;23.00;22.75;;;;;19.63;33.85;102318.34;5077020;27;45436;-45
2022/03/22 05:01:42;;;;;;;;;20.50;19.25;;;;;19.63;33.66;102323.59;5077151;27;45462;-48
2022/03/22 05:04:09;;;;;;;;;23.50;21.50;;;;;19.64;34.05;102327.97;5076542;28;45318;-52
2022/03/22 05:06:36;;;;;;;;;28.75;28.00;;;;;19.64;33.59;102325.31;5076670;27;45707;-52
2022/03/22 05:09:03;;;;;;;;;28.75;26.00;;;;;19.64;34.08;102335.84;5076747;27;45361;-52
2022/03/22 05:11:28;;;;;;;;;23.50;23.00;;;;;19.63;34.00;102334.13;5076755;27;45458;-49
2022/03/22 05:13:54;;;;;;;;;27.67;27.00;;;;;19.62;33.72;102327.97;5076286;28;49544;-51
2022/03/22 05:16:19;;;;;;;;;28.25;25.00;;;;;19.63;33.84;102334.97;5076196;27;45322;-46
2022/03/22 05:18:45;;;;;;;;;28.25;26.00;;;;;19.62;33.77;102335.03;5076777;27;45279;-44
2022/03/22 05:21:10;;;;;;;;;24.75;24.00;;;;;19.62;34.04;102333.25;5076852;27;45212;-53
2022/03/22 05:23:36;;;;;;;;;24.00;24.00;;;;;19.63;34.02;102339.38;5076371;27;46168;-51
2022/03/22 05:26:03;;;;;;;;;25.00;21.50;;;;;19.61;33.70;102336.81;5076267;27;45177;-44
2022/03/22 05:28:29;;;;;;;;;28.25;24.25;;;;;19.62;33.80;102337.66;5076644;27;45294;-47
2022/03/22 05:30:55;;;;;;;;;26.00;25.50;;;;;19.61;33.82;102342.06;5076769;27;45363;-50
2022/03/22 05:33:20;;;;;;;;;24.50;21.50;;;;;19.62;34.02;102342.91;5076152;27;46066;-51
2022/03/22 05:35:46;;;;;;;;;23.50;21.75;;;;;19.61;33.99;102343.81;5076160;27;45314;-51
2022/03/22 05:38:11;;;;;;;;;23.50;20.75;;;;;19.62;33.69;102350.81;5076703;27;45377;-48
2022/03/22 05:40:38;;;;;;;;;25.50;21.75;;;;;19.60;33.90;102352.59;5075199;28;45664;-48
2022/03/22 05:43:03;;;;;;;;;26.50;24.75;;;;;19.60;33.91;102355.25;5075962;27;47170;-53
2022/03/22 05:45:28;;;;;;;;;19.75;19.25;;;;;19.60;33.49;102361.38;5076039;27;45349;-55
2022/03/22 05:47:54;;;;;;;;;24.50;24.00;;;;;19.60;33.88;102363.13;5076239;27;45275;-55
2022/03/22 05:50:19;;;;;;;;;22.00;20.00;;;;;19.60;33.71;102365.75;5076289;27;45382;-54
2022/03/22 05:52:47;;;;;;;;;24.50;22.25;;;;;19.60;33.63;102365.75;5076385;27;46192;-53
2022/03/22 05:55:13;;;;;;;;;22.25;20.75;;;;;19.59;33.71;102364.91;5076393;27;45277;-55
2022/03/22 05:57:39;;;;;;;;;19.50;18.00;;;;;19.60;33.79;102368.38;5091858;27;45337;-53
2022/03/22 06:00:06;;;;;;;;;20.50;18.00;;;;;19.58;33.71;102367.56;5076296;27;45569;-54
2022/03/22 06:02:37;;;;;;;;;17.00;16.00;;;;;19.58;33.84;102373.69;5075865;27;47084;-52
2022/03/22 06:05:02;;;;;;;;;25.75;21.50;;;;;19.59;33.58;102377.19;5076005;27;45315;-53
2022/03/22 06:07:28;;;;;;;;;21.25;21.25;;;;;19.58;34.00;102378.97;5074673;28;45294;-56
2022/03/22 06:09:53;;;;;;;;;21.33;18.67;;;;;19.58;33.43;102389.47;5075961;28;45165;-53
2022/03/22 06:12:19;;;;;;;;;24.00;20.75;;;;;19.58;33.52;102391.22;5075753;27;46228;-53
2022/03/22 06:14:45;;;;;;;;;18.25;17.75;;;;;19.57;33.75;102392.13;5074516;28;45436;-47
2022/03/22 06:17:10;;;;;;;;;21.25;18.25;;;;;19.57;33.98;102392.13;5075838;27;45390;-51
2022/03/22 06:19:35;;;;;;;;;21.25;18.25;;;;;19.57;33.82;102392.13;5076041;27;45594;-54
2022/03/22 06:22:01;;;;;;;;;18.25;17.00;;;;;19.57;33.42;102394.75;5074247;28;46497;-54
2022/03/22 06:24:26;;;;;;;;;19.00;16.50;;;;;19.56;34.00;102398.31;5077767;27;45346;-51
2022/03/22 06:26:51;;;;;;;;;23.00;19.50;;;;;19.55;33.91;102400.06;5079196;27;45310;-52
2022/03/22 06:29:17;;;;;;;;;19.00;17.50;;;;;19.56;33.68;102395.69;5079692;27;45634;-51
2022/03/22 06:31:44;;;;;;;;;18.00;17.50;;;;;19.56;33.91;102406.22;5078858;27;46336;-49
2022/03/22 06:34:09;;;;;;;;;21.50;18.25;;;;;19.56;33.94;102406.22;5078818;27;46123;-51
2022/03/22 06:36:34;;;;;;;;;15.50;15.50;;;;;19.55;33.65;102405.34;5079030;27;45354;-46
2022/03/22 06:38:59;;;;;;;;;16.50;16.25;;;;;19.55;33.75;102404.50;5079239;27;45307;-51
2022/03/22 06:41:25;;;;;;;;;18.25;15.50;;;;;19.55;33.60;102412.38;5078825;27;45477;-51
2022/03/22 06:43:50;;;;;;;;;18.75;14.50;;;;;19.55;33.74;102409.75;5078891;28;45393;-48
2022/03/22 06:46:16;;;;;;;;;18.50;18.00;;;;;19.55;33.39;102417.63;5079143;27;45310;-50
2022/03/22 06:48:42;;;;;;;;;17.25;17.00;;;;;19.53;33.70;102412.41;5078777;27;45243;-51
2022/03/22 06:51:07;;;;;;;;;28.25;21.25;;;;;19.51;32.93;102421.22;5078384;27;46018;-49
2022/03/22 06:53:33;;;;;;;;;27.25;23.00;;;;;19.36;32.82;102427.75;5078130;27;45464;-47
2022/03/22 06:55:58;;;;;;;;;23.00;21.75;;;;;19.16;32.79;102419.44;5078277;27;45236;-50
2022/03/22 06:58:25;;;;;;;;;24.50;23.00;;;;;19.03;32.73;102420.63;5078529;27;45205;-52
2022/03/22 07:00:54;;;;;;;;;30.25;24.00;;;;;18.89;32.41;102426.19;5077903;27;46526;-52
2022/03/22 07:03:19;;;;;;;;;28.25;24.75;;;;;18.73;32.64;102425.69;5078238;27;45546;-44
2022/03/22 07:05:45;;;;;;;;;24.25;23.00;;;;;18.60;32.61;102421.59;5078464;27;45543;-47
2022/03/22 07:08:12;;;;;;;;;26.75;26.00;;;;;18.48;32.74;102422.72;5078302;27;45242;-47
2022/03/22 07:10:38;;;;;;;;;27.50;27.00;;;;;18.42;32.58;102426.34;5077805;27;47280;-44
2022/03/22 07:13:05;;;;;;;;;27.00;25.75;;;;;18.35;32.60;102430.00;5077940;27;45459;-46
2022/03/22 07:15:35;;;;;;;;;27.75;25.25;;;;;18.24;32.71;102428.44;5077957;27;45460;-44
2022/03/22 07:18:01;;;;;;;;;23.75;23.75;;;;;18.16;32.68;102425.09;5076729;28;45847;-53
2022/03/22 07:20:27;;;;;;;;;27.75;25.00;;;;;18.11;32.83;102426.97;5077821;27;45703;-48
2022/03/22 07:22:52;;;;;;;;;28.00;24.75;;;;;18.16;33.19;102432.13;5077727;27;45716;-43
2022/03/22 07:25:18;;;;;;;;;21.75;21.75;;;;;18.23;33.39;102431.09;5077973;27;45324;-46
2022/03/22 07:27:45;;;;;;;;;20.75;20.50;;;;;18.33;33.27;102437.03;5077887;27;45502;-50
2022/03/22 07:30:11;;;;;;;;;24.25;24.25;;;;;18.44;33.41;102444.69;5077674;28;45393;-47
2022/03/22 07:32:37;;;;;;;;;23.50;18.25;;;;;18.50;33.21;102440.16;5077579;27;45685;-44
2022/03/22 07:35:03;;;;;;;;;22.75;22.00;;;;;18.59;33.26;102443.50;5076805;27;45421;-46
2022/03/22 07:37:29;;;;;;;;;19.00;17.50;;;;;18.66;33.17;102440.69;5077920;27;45334;-45
2022/03/22 07:39:57;;;;;;;;;25.25;21.50;;;;;18.72;33.35;102444.09;5077566;27;46186;-45
2022/03/22 07:42:29;;;;;;;;;18.25;17.00;;;;;18.78;33.09;102436.97;5077566;27;45337;-46
2022/03/22 07:45:01;;;;;;;;;23.00;20.00;;;;;18.83;33.02;102431.59;5077622;27;45225;-54
2022/03/22 07:47:28;;;;;;;;;20.75;17.25;;;;;18.89;32.99;102446.34;5077869;27;45550;-50
2022/03/22 07:55:40;;;;;;;;;23.25;21.25;;;;;19.01;33.25;102440.84;5034657;28;45218;-53
2022/03/22 07:58:07;;;;;;;;;18.00;18.00;;;;;19.04;32.97;102439.91;5068855;27;45446;-54
2022/03/22 08:00:35;;;;;;;;;19.00;17.00;;;;;19.07;33.26;102448.59;5077276;27;45501;-49
2022/03/22 08:03:03;;;;;;;;;20.00;18.00;;;;;19.10;33.45;102439.75;5077280;28;45843;-52
2022/03/22 08:05:28;;;;;;;;;18.00;16.00;;;;;19.12;33.36;102436.22;5077310;27;45356;-52
2022/03/22 08:07:54;;;;;;;;;22.50;17.00;;;;;19.15;33.31;102443.16;5077273;27;45337;-52
2022/03/22 08:10:20;;;;;;;;;19.50;17.75;;;;;19.16;33.08;102445.72;5076191;27;45965;-54
2022/03/22 08:12:46;;;;;;;;;22.00;16.00;;;;;19.19;33.11;102447.41;5075728;28;45987;-52
2022/03/22 08:15:12;;;;;;;;;20.75;20.00;;;;;19.21;33.00;102443.00;5075709;27;45288;-50
2022/03/22 08:17:39;;;;;;;;;23.75;21.75;;;;;19.23;33.09;102442.97;5077290;27;45432;-56
2022/03/22 08:20:07;;;;;;;;;19.75;18.75;;;;;19.24;32.94;102444.66;5076741;27;45531;-52
2022/03/22 08:22:33;;;;;;;;;17.25;17.25;;;;;19.26;32.95;102446.38;5076767;27;46028;-52
2022/03/22 08:24:58;;;;;;;;;18.00;17.75;;;;;19.26;33.27;102445.50;5076887;27;45207;-46
2022/03/22 08:27:24;;;;;;;;;18.00;17.25;;;;;19.29;33.19;102453.31;5077183;27;45490;-44
2022/03/22 08:29:51;;;;;;;;;18.50;15.75;;;;;19.30;33.13;102449.81;5077064;27;45285;-55
2022/03/22 08:32:17;;;;;;;;;20.25;16.75;;;;;19.30;32.95;102448.03;5076813;27;45446;-53
2022/03/22 08:34:42;;;;;;;;;25.50;22.00;;;;;19.32;32.99;102448.00;5076770;28;45305;-53
2022/03/22 08:37:07;;;;;;;;;18.00;15.00;;;;;19.32;32.82;102458.53;5077122;27;45310;-50
2022/03/22 08:39:33;;;;;;;;;23.50;17.75;;;;;19.34;32.96;102447.94;5076610;28;46428;-45
2022/03/22 08:41:58;;;;;;;;;21.25;18.50;;;;;19.34;32.74;102454.09;5076736;27;45454;-57
2022/03/22 08:44:24;;;;;;;;;20.25;20.00;;;;;19.36;33.03;102451.41;5077097;28;45440;-46
2022/03/22 08:46:51;;;;;;;;;19.25;17.25;;;;;19.37;32.68;102453.16;5076441;27;45628;-50
2022/03/22 08:49:16;;;;;;;;;17.50;16.75;;;;;19.36;32.75;102447.00;5076532;27;45409;-52
2022/03/22 08:51:42;;;;;;;;;16.00;13.25;;;;;19.37;32.72;102446.09;5076341;27;45271;-54
2022/03/22 08:54:07;;;;;;;;;18.75;16.00;;;;;19.38;32.68;102447.84;5076761;27;45300;-54
2022/03/22 08:56:32;;;;;;;;;18.75;16.50;;;;;19.39;32.73;102446.94;5075619;28;45524;-53
2022/03/22 08:59:00;;;;;;;;;16.75;14.75;;;;;19.40;32.47;102443.41;5076362;27;46019;-54
2022/03/22 09:01:27;;;;;;;;;18.25;17.00;;;;;19.40;32.84;102445.19;5076611;27;45851;-51
2022/03/22 09:06:37;;;;;;;;;17.50;17.50;;;;;19.42;32.78;102440.72;5076720;28;45378;-56
2022/03/22 09:09:04;;;;;;;;;18.25;18.25;;;;;19.43;32.34;102437.19;5074947;28;48223;-53
2022/03/22 09:11:29;;;;;;;;;21.75;17.75;;;;;19.43;32.45;102445.97;5076164;28;45901;-49
2022/03/22 09:13:55;;;;;;;;;23.25;18.00;;;;;19.45;32.65;102445.91;5076673;27;45334;-48
2022/03/22 09:16:21;;;;;;;;;17.25;15.75;;;;;19.45;31.92;102456.44;5076198;27;45547;-50
2022/03/22 09:18:47;;;;;;;;;21.25;15.75;;;;;19.46;32.09;102459.03;5075838;27;45993;-52
2022/03/22 09:21:13;;;;;;;;;17.75;14.75;;;;;19.46;32.42;102463.44;5076125;27;45434;-51
2022/03/22 09:23:40;;;;;;;;;15.50;14.75;;;;;19.46;31.77;102463.44;5076197;27;45548;-54
2022/03/22 09:26:05;;;;;;;;;17.50;15.75;;;;;19.47;32.32;102466.00;5076256;27;45357;-56
2022/03/22 09:28:31;;;;;;;;;17.50;16.50;;;;;19.49;31.91;102458.09;5074669;28;47250;-51
2022/03/22 09:30:56;;;;;;;;;18.75;15.75;;;;;19.49;31.83;102459.84;5074581;28;45414;-45
2022/03/22 09:33:22;;;;;;;;;18.25;16.75;;;;;19.49;32.11;102455.47;5076259;27;45386;-53
2022/03/22 09:35:48;;;;;;;;;15.75;15.75;;;;;19.50;31.96;102458.94;5076255;27;45433;-55
2022/03/22 09:38:14;;;;;;;;;19.00;19.00;;;;;19.50;31.50;102458.94;5075614;27;47568;-53
2022/03/22 09:40:39;;;;;;;;;13.25;13.00;;;;;19.52;31.92;102457.16;5075769;27;45385;-46
2022/03/22 09:43:08;;;;;;;;;15.50;13.50;;;;;19.52;31.96;102454.53;5074511;28;45280;-51
2022/03/22 09:45:33;;;;;;;;;13.50;13.50;;;;;19.53;31.63;102459.72;5076104;27;45504;-50
2022/03/22 09:47:59;;;;;;;;;15.75;15.75;;;;;19.55;31.85;102464.97;5074421;28;47015;-46
2022/03/22 09:53:12;;;;;;;;;18.00;15.25;;;;;19.55;31.55;102457.94;5073845;28;45386;-50
2022/03/22 09:55:38;;;;;;;;;15.50;15.50;;;;;19.55;31.65;102454.44;5074643;27;45441;-45
2022/03/22 09:58:03;;;;;;;;;15.25;13.75;;;;;19.56;31.68;102458.81;5075222;28;45430;-45
2022/03/22 10:00:29;;;;;;;;;16.50;14.50;;;;;19.57;31.90;102450.00;5078798;27;45395;-44
2022/03/22 10:02:54;;;;;;;;;13.00;13.00;;;;;19.58;32.08;102446.47;5079158;27;45476;-43
2022/03/22 10:05:26;;;;;;;;;16.50;13.75;;;;;19.60;31.77;102452.56;5077316;28;45509;-53
2022/03/22 10:08:00;;;;;;;;;17.75;14.75;;;;;19.60;31.47;102452.56;5077073;28;46570;-54
2022/03/22 10:10:28;;;;;;;;;13.75;12.75;;;;;19.62;31.42;102451.59;5079246;28;45421;-47
2022/03/22 10:13:02;;;;;;;;;12.25;11.75;;;;;19.64;31.83;102456.84;5078520;27;45429;-52
2022/03/22 10:15:30;;;;;;;;;19.25;17.50;;;;;19.66;31.41;102448.91;5078866;27;45445;-42
2022/03/22 10:18:04;;;;;;;;;15.75;13.25;;;;;19.67;31.49;102448.00;5078761;27;45623;-50
2022/03/22 10:20:30;;;;;;;;;13.50;11.00;;;;;19.67;31.21;102443.63;5078682;28;45461;-47
2022/03/22 10:22:58;;;;;;;;;15.25;12.25;;;;;19.68;31.92;102447.09;5078314;28;45321;-48
2022/03/22 10:25:24;;;;;;;;;16.50;14.25;;;;;19.69;31.48;102444.41;5078684;27;45270;-51
2022/03/22 10:27:54;;;;;;;;;18.25;17.00;;;;;19.71;31.47;102441.78;5078371;27;47515;-47
2022/03/22 10:30:20;;;;;;;;;13.50;11.25;;;;;19.71;31.40;102432.09;5077206;28;46164;-52
2022/03/22 10:32:51;;;;;;;;;16.50;15.25;;;;;19.73;30.89;102437.34;5078135;27;45381;-49
2022/03/22 10:35:31;;;;;;;;;16.75;13.75;;;;;19.73;31.66;102440.81;5078631;27;45564;-44
2022/03/22 10:38:06;;;;;;;;;14.50;14.50;;;;;19.74;31.14;102441.66;5077109;28;45366;-47
2022/03/22 10:40:33;;;;;;;;;17.50;13.00;;;;;19.75;31.40;102438.13;5078393;27;45250;-48
2022/03/22 10:43:01;;;;;;;;;14.75;14.75;;;;;19.75;31.10;102431.13;5078271;27;45410;-48
2022/03/22 10:45:28;;;;;;;;;15.75;14.00;;;;;19.76;31.26;102432.84;5077455;28;45398;-46
2022/03/22 10:47:57;;;;;;;;;20.25;14.75;;;;;19.76;31.01;102424.97;5077786;27;46297;-50
2022/03/22 10:50:23;;;;;;;;;14.25;14.25;;;;;19.77;30.97;102429.31;5077800;27;45374;-50
2022/03/22 10:52:59;;;;;;;;;14.50;13.00;;;;;19.80;31.42;102435.38;5076063;28;45511;-45
2022/03/22 10:55:27;;;;;;;;;14.50;12.75;;;;;19.81;31.11;102431.84;5078645;27;45635;-45
2022/03/22 10:57:58;;;;;;;;;14.25;14.00;;;;;19.82;31.14;102428.31;5077629;27;45783;-45
2022/03/22 11:00:24;;;;;;;;;15.50;13.50;;;;;19.81;31.02;102422.19;5078268;27;45457;-45
2022/03/22 11:02:52;;;;;;;;;17.00;14.25;;;;;19.81;30.77;102416.06;5078039;27;45363;-44
2022/03/22 11:05:20;;;;;;;;;14.25;14.25;;;;;19.78;29.69;102407.38;5078228;27;45428;-45
2022/03/22 11:07:50;;;;;;;;;17.50;16.00;;;;;19.76;29.10;102414.44;5077912;27;45514;-52
2022/03/22 11:10:24;;;;;;;;;20.75;17.50;;;;;19.73;28.73;102413.66;5077640;27;45378;-41
2022/03/22 11:12:51;;;;;;;;;19.00;15.25;;;;;19.69;28.24;102412.00;5078106;27;45504;-54
2022/03/22 11:15:17;;;;;;;;;22.50;18.00;;;;;19.63;27.87;102408.63;5078043;27;45526;-51
2022/03/22 11:17:45;;;;;;;;;16.00;16.00;;;;;19.59;27.39;102400.84;5076577;28;46094;-50
2022/03/22 11:20:13;;;;;;;;;18.50;17.25;;;;;19.55;27.27;102410.59;5076729;28;45352;-50
2022/03/22 11:22:50;;;;;;;;;18.75;16.00;;;;;19.51;26.50;102402.81;5078051;27;45278;-46
2022/03/22 11:25:41;;;;;;;;;15.25;14.75;;;;;19.46;26.53;102401.16;5076650;28;45478;-49
2022/03/22 11:28:09;;;;;;;;;16.00;16.00;;;;;19.44;26.40;102403.00;5077816;27;45991;-44
2022/03/22 11:30:37;;;;;;;;;17.00;16.50;;;;;19.44;26.85;102402.13;5077859;27;45360;-53
2022/03/22 11:35:52;;;;;;;;;17.25;17.25;;;;;19.40;25.63;102398.72;5078051;27;45373;-47
2022/03/22 11:38:36;;;;;;;;;18.00;17.00;;;;;19.36;25.30;102383.91;5077494;27;45977;-49
2022/03/22 11:43:46;;;;;;;;;21.75;18.00;;;;;19.31;25.05;102384.03;5077881;28;45376;-51